Tropical Cyclones
[Index]
Main Index Home Page Stock Weather Photos Extreme Storms Discussion Storm News and Storm Chasing Reports Tropical Cyclones / Hurricanes / Typhoons Weather Data and Links Wild Fires / Bushfires Weather Observation Techniques Weather Picture Catalogue Tornado Pictures and Reports Stock Video Footage and DVDs for sale
Season 2002-2003 Tropical Cyclone HARRIET Track Map
Season 2002-2003 Summaries (Operational Data): [AU] [SIO] [SPAC] [SH]
<<- Previous TC | 2002-2003 Season | Next TC ->>

click for intensity scale information  Lat/long Grid: Show Hide

 Date Labels: Show Hide

Operational Tropical Cyclone Data : JTWC Advisories

Name: HARRIET
Number: 0321

02 Mar 2003 06:00 UTC to 11 Mar 2003 01:00 UTC

    date/time    lat    long     hPa   cat  kts
2003-03-02 06   14.1   106.7                             
2003-03-02 18   14.9   108.3                             
2003-03-02 22   14.7   109.1     998         30          
2003-03-03 04   14.7   109.9    1000         30          
2003-03-03 10   14.7   110.5    1000         30          
2003-03-03 16   14.7   111.4    1000    1    40          
2003-03-03 22   14.7   111.8     995    1    40          
2003-03-04 04   14.8   112.5     992    1    45          
2003-03-04 10   14.8   113.8     992    1    45          
2003-03-04 16   14.9   114.2     992    1    45          
2003-03-04 22   15.3   114.7     992    1    35          
2003-03-05 04   16.0   114.9     992    1    35          
2003-03-05 10   16.5   115.6     992    1    35          
2003-03-05 16   17.3   116.1     992    1    35          
2003-03-05 22   17.5   116.0     988    1    45          
2003-03-06 04   18.4   115.8     988    1    45          
2003-03-06 10   18.8   115.0     988    1    45          
2003-03-06 16   19.1   114.6     988    1    45          
2003-03-06 22   19.0   114.5     988    1    45          
2003-03-07 04   18.9   114.2     988    1    45          
2003-03-07 10   19.1   113.9     988    1    45          
2003-03-07 16   19.1   113.6     985    1    45          
2003-03-07 22   19.2   113.5     980    2    50          
2003-03-08 04   19.7   113.0     980    2    50          
2003-03-08 10   20.0   112.5     980    2    55          
2003-03-08 16   20.7   111.7     980    2    55          
2003-03-08 22   21.3   110.7     982    2    55          
2003-03-09 04   22.3   109.8     982    2    55          
2003-03-09 07   22.5   109.3     990    1    40          
2003-03-09 10   23.2   108.5     997    1    40          
2003-03-09 16   24.8   107.8     998    1    40          
2003-03-09 22   26.5   107.6    1000    1    40          
2003-03-10 04   27.7   107.3    1000    2    50          
2003-03-10 10   29.4   108.5    1000    2    50          
2003-03-10 16   31.6   110.3    1000    2    50          
2003-03-10 22   34.0   112.3    1000    1    45          
2003-03-11 01   36.0   114.0    1001    1    45          
Winds are 10-min average.

Tropical cyclone tracks developed by Michael Bath using operational warnings and advisories and Google Maps.


[Australian Severe Weather index] [Copyright Notice] [Email Contacts] [Search This Site] [Privacy Policy]
Document: tropical_cyclone_harriet.htm Updated: 2 May 2017